FYWE

Eros Airport

Windhoek, Namibia
TAF FYWE 171100Z 1712/1721 28003KT 9999 SCT050 BECMG 1713/1715 BKN040 TEMPO 1716/1719 -TSRA FEW040CB SCT045TCU
Issued Valid From Valid To
Dec-17 @ 11:00 UTC
(an hour ago)
Dec-17 @ 12:00 UTC
(7 minutes ago)
Dec-17 @ 21:00 UTC
(in 9 hours)
Dec-17 @ 12:00 to Dec-17 @ 13:00
TAF FYWE 171100Z 1712/1721 28003KT 9999 SCT050
Wind Visibility Clouds
280° at 3 knots 10,000+ meters
  • Scattered at 5,000' AGL
Becoming Dec-17 @ 13:00 to Dec-17 @ 21:00
BECMG 1713/1715 BKN040
Wind Visibility Clouds
280° at 3 knots 10,000+ meters
  • Broken at 4,000' AGL
Temporary Dec-17 @ 16:00 to Dec-17 @ 19:00
TEMPO 1716/1719 -TSRA FEW040CB SCT045TCU
Clouds Conditions
  • Few at 4,000' AGL
  • Scattered at 4,500' AGL
  • Light Thunderstorm
  • Light Rain
TAF FYWE 171100Z 1712/1721 28003KT 9999 SCT050 BECMG 1713/1715 BKN040 TEMPO 1716/1719 -TSRA FEW040CB SCT045TCU
Issued Dec-17 @ 11:00 UTC
(an hour ago)
Valid From Dec-17 @ 12:00 UTC
(7 minutes ago)
Valid To Dec-17 @ 21:00 UTC
(in 9 hours)
Dec-17 @ 12:00 - Dec-17 @ 13:00
Wind Visibility
280° at 3 knots 10,000+ meters
Clouds
  • Scattered at 5,000' AGL
Becoming Dec-17 @ 13:00 - Dec-17 @ 21:00
Wind Visibility
280° at 3 knots 10,000+ meters
Clouds
  • Broken at 4,000' AGL
Temporary Dec-17 @ 16:00 - Dec-17 @ 19:00
Clouds
  • Few at 4,000' AGL
  • Scattered at 4,500' AGL
Conditions
  • Light Thunderstorm
  • Light Rain